Terminal Aerodrome Forecast
Issued by NWS

Home | Current Version | Previous Version | Text Only | Print | Product List | Glossary On
Versions: 1 2 3 4 5 6 7 8 9 10 11 12 13 14 15 16 17 18 19 20 21 22 23 24
000
FTUS42 KJAX 201751
TAFVQQ
TAF
KVQQ 201751Z 2018/2118 04011G17KT P6SM SCT025 BKN035
     FM210000 04006KT P6SM FEW035 SCT250
     FM210900 04003KT P6SM FEW020 SCT250
      TEMPO 2109/2112 5SM BR
     FM211400 06010KT P6SM SCT030 SCT250=

USA.gov is the U.S. government's official web portal to all federal, state and local government web resources and services.